Time;durP1;ratioP1;P1;durP2;ratioP2;P2;SDS_P1;SDS_P2;PMS_P1;PMS_P2;Temp;Humidity;BMP_temperature;BMP_pressure;BME280_temperature;BME280_humidity;BME280_pressure;Samples;Min_cycle;Max_cycle;Signal;HPM_P1;HPM_P2
2022/06/10 00:00:42;;;;;;;1.10;0.90;;;25.90;53.10;;;;;;5063593;28;20455;-82
2022/06/10 00:03:10;;;;;;;1.87;1.10;;;25.90;53.10;;;;;;5061915;28;20457;-82
2022/06/10 00:05:37;;;;;;;1.20;0.90;;;25.90;53.10;;;;;;5063720;28;20413;-82
2022/06/10 00:08:15;;;;;;;1.10;1.00;;;25.90;53.10;;;;;;5062820;28;20452;-82
2022/06/10 00:10:41;;;;;;;1.07;0.73;;;25.90;53.10;;;;;;5062740;28;20451;-82
2022/06/10 00:13:07;;;;;;;1.30;0.87;;;25.90;53.10;;;;;;5061870;28;20448;-82
2022/06/10 00:15:34;;;;;;;1.20;1.07;;;25.80;53.10;;;;;;5062107;28;20425;-82
2022/06/10 00:18:00;;;;;;;1.00;0.90;;;25.90;53.10;;;;;;5062797;28;20414;-82
2022/06/10 00:20:29;;;;;;;1.73;1.00;;;25.90;53.10;;;;;;5062634;28;20422;-81
2022/06/10 00:22:55;;;;;;;1.00;0.80;;;25.90;53.10;;;;;;5062363;28;20506;-82
2022/06/10 00:25:22;;;;;;;1.03;0.90;;;25.90;53.10;;;;;;5062850;28;20406;-82
2022/06/10 00:27:48;;;;;;;1.73;0.90;;;25.90;53.10;;;;;;5061510;28;20422;-82
2022/06/10 00:30:16;;;;;;;1.10;0.90;;;25.80;53.00;;;;;;5062755;28;20460;-81
2022/06/10 00:32:42;;;;;;;1.47;1.00;;;25.90;53.10;;;;;;5062952;28;20471;-82
2022/06/10 00:35:08;;;;;;;1.20;1.10;;;25.90;53.10;;;;;;5063089;28;20409;-82
2022/06/10 00:37:34;;;;;;;1.00;0.87;;;25.90;53.10;;;;;;5061937;28;20179;-82
2022/06/10 00:40:00;;;;;;;1.00;0.83;;;25.90;53.10;;;;;;5061775;28;20471;-81
2022/06/10 00:42:26;;;;;;;1.43;1.00;;;25.90;53.10;;;;;;5061418;28;20195;-82
2022/06/10 00:44:53;;;;;;;1.00;0.90;;;25.90;53.10;;;;;;5062668;28;20420;-82
2022/06/10 00:47:33;;;;;;;1.60;1.03;;;25.90;53.10;;;;;;5061135;28;20183;-82
2022/06/10 00:50:07;;;;;;;1.03;0.90;;;25.90;53.10;;;;;;5062670;28;20393;-82
2022/06/10 00:52:37;;;;;;;1.20;0.90;;;25.80;53.00;;;;;;5061638;28;20402;-82
2022/06/10 00:55:06;;;;;;;1.00;0.90;;;25.90;53.10;;;;;;5061632;28;20966;-82
2022/06/10 00:57:39;;;;;;;1.20;1.00;;;25.90;53.10;;;;;;5062346;28;20467;-82
2022/06/10 01:00:15;;;;;;;1.20;0.93;;;25.90;53.10;;;;;;5062794;28;20413;-82
2022/06/10 01:02:42;;;;;;;1.10;0.90;;;25.90;53.10;;;;;;5061722;28;20930;-82
2022/06/10 01:05:15;;;;;;;1.00;0.80;;;25.90;53.20;;;;;;5061191;28;20418;-82
2022/06/10 01:07:45;;;;;;;1.00;0.80;;;25.90;53.10;;;;;;5062104;28;20409;-82
2022/06/10 01:10:14;;;;;;;1.17;1.00;;;25.90;53.10;;;;;;5061151;28;20505;-82
2022/06/10 01:13:00;;;;;;;1.03;0.90;;;25.90;53.10;;;;;;5061967;28;20440;-82
2022/06/10 01:15:32;;;;;;;1.20;0.93;;;25.90;53.10;;;;;;5060345;28;20428;-82
2022/06/10 01:18:19;;;;;;;0.90;0.77;;;25.90;53.10;;;;;;5061488;28;20783;-82
2022/06/10 01:21:10;;;;;;;1.10;0.87;;;25.90;53.10;;;;;;5062489;28;20409;-81
2022/06/10 01:23:54;;;;;;;1.20;0.90;;;25.80;53.10;;;;;;5061545;28;20486;-81
2022/06/10 01:29:52;;;;;;;1.30;1.00;;;25.80;53.10;;;;;;5062610;28;20444;-81
2022/06/10 01:32:25;;;;;;;1.10;1.00;;;25.80;53.10;;;;;;5063412;28;20426;-81
2022/06/10 01:35:05;;;;;;;1.00;0.90;;;25.80;53.10;;;;;;5064502;28;20406;-81
2022/06/10 01:37:52;;;;;;;1.17;1.07;;;25.80;53.10;;;;;;5062132;28;20846;-81
2022/06/10 01:40:27;;;;;;;1.13;0.90;;;25.80;53.10;;;;;;5064653;28;20397;-81
2022/06/10 01:43:14;;;;;;;1.00;0.90;;;25.80;53.10;;;;;;5066115;28;20437;-81
2022/06/10 01:45:52;;;;;;;3.03;0.90;;;25.80;53.10;;;;;;5062978;28;20394;-81
2022/06/10 01:48:23;;;;;;;1.60;1.00;;;25.80;53.10;;;;;;5065540;28;20424;-81
2022/06/10 01:50:57;;;;;;;1.00;0.90;;;25.80;53.10;;;;;;5064808;28;20768;-81
2022/06/10 01:53:37;;;;;;;0.93;0.83;;;25.80;53.10;;;;;;5061666;28;20417;-81
2022/06/10 01:56:26;;;;;;;0.90;0.80;;;25.80;53.10;;;;;;5060777;28;20416;-81
2022/06/10 01:59:01;;;;;;;0.90;0.80;;;25.80;53.10;;;;;;5060527;28;20490;-81
2022/06/10 02:01:32;;;;;;;1.07;0.77;;;25.80;53.10;;;;;;5060433;28;20432;-81
2022/06/10 02:04:01;;;;;;;1.00;0.80;;;25.80;53.10;;;;;;5064473;28;20391;-80
2022/06/10 02:06:49;;;;;;;0.90;0.70;;;25.80;53.10;;;;;;5065709;28;20609;-81
2022/06/10 02:09:19;;;;;;;1.20;0.90;;;25.80;53.10;;;;;;5064353;28;20393;-81
2022/06/10 02:11:51;;;;;;;1.10;1.00;;;25.80;53.10;;;;;;5065077;28;20417;-81
2022/06/10 02:14:24;;;;;;;1.10;0.83;;;25.80;53.10;;;;;;5063876;28;20946;-81
2022/06/10 02:16:51;;;;;;;1.00;0.77;;;25.80;53.10;;;;;;5066029;28;20444;-81
2022/06/10 02:19:35;;;;;;;1.20;0.90;;;25.80;53.10;;;;;;5064642;28;20489;-81
2022/06/10 02:22:13;;;;;;;1.27;0.97;;;25.80;53.10;;;;;;5065516;28;20507;-81
2022/06/10 02:24:57;;;;;;;1.13;0.87;;;25.80;53.10;;;;;;5065275;28;20394;-81
2022/06/10 02:27:28;;;;;;;0.90;0.80;;;25.80;53.10;;;;;;5064083;28;20401;-81
2022/06/10 02:30:08;;;;;;;1.03;0.90;;;25.80;53.10;;;;;;5065284;28;20390;-81
2022/06/10 02:32:35;;;;;;;1.20;0.90;;;25.80;53.10;;;;;;5065797;28;20408;-81
2022/06/10 02:35:01;;;;;;;1.00;0.87;;;25.80;53.10;;;;;;5068377;28;20413;-81
2022/06/10 02:37:48;;;;;;;1.37;1.10;;;25.80;53.10;;;;;;5064245;28;20472;-81
2022/06/10 02:40:25;;;;;;;1.00;0.90;;;25.80;53.10;;;;;;5067040;28;20425;-81
2022/06/10 02:43:00;;;;;;;0.90;0.70;;;25.80;53.10;;;;;;5067461;28;20445;-81
2022/06/10 02:45:35;;;;;;;1.10;0.90;;;25.80;53.10;;;;;;5063663;28;20790;-81
2022/06/10 02:48:30;;;;;;;3.10;0.77;;;25.80;53.10;;;;;;5066355;28;20405;-81
2022/06/10 02:50:56;;;;;;;1.20;0.90;;;25.80;53.10;;;;;;4979089;28;20417;-81
2022/06/10 02:53:22;;;;;;;1.10;0.90;;;25.80;53.20;;;;;;5063636;28;20448;-81
2022/06/10 02:55:48;;;;;;;1.20;0.90;;;25.80;53.20;;;;;;5063727;28;20418;-81
2022/06/10 03:01:30;;;;;;;0.90;0.80;;;25.80;53.10;;;;;;5064689;28;20584;-81
2022/06/10 03:04:11;;;;;;;1.03;0.80;;;25.80;53.20;;;;;;5062739;28;20471;-81
2022/06/10 03:06:59;;;;;;;0.93;0.80;;;25.80;53.20;;;;;;5063153;28;20501;-81
2022/06/10 03:09:34;;;;;;;0.90;0.77;;;25.80;53.20;;;;;;5063399;28;20417;-81
2022/06/10 03:12:23;;;;;;;0.93;0.80;;;25.80;53.20;;;;;;5063328;28;20413;-81
2022/06/10 03:14:52;;;;;;;1.03;0.80;;;25.80;53.20;;;;;;5049152;28;20414;-81
2022/06/10 03:17:31;;;;;;;1.07;0.80;;;25.80;53.20;;;;;;5063225;28;20418;-81
2022/06/10 03:20:11;;;;;;;1.10;0.87;;;25.80;53.20;;;;;;5062911;28;20899;-81
2022/06/10 03:22:46;;;;;;;0.90;0.70;;;25.80;53.80;;;;;;5063060;28;20456;-80
2022/06/10 03:25:20;;;;;;;0.97;0.77;;;25.80;53.20;;;;;;5064047;28;20409;-82
2022/06/10 03:28:17;;;;;;;0.93;0.80;;;25.80;53.20;;;;;;5062615;28;20416;-82
2022/06/10 03:31:08;;;;;;;1.10;0.80;;;25.80;53.20;;;;;;5063450;28;20930;-81
2022/06/10 03:33:39;;;;;;;1.10;0.90;;;25.80;53.20;;;;;;5029411;28;20424;-82
2022/06/10 03:36:12;;;;;;;1.20;0.90;;;25.80;53.20;;;;;;5066360;28;20390;-82
2022/06/10 03:38:43;;;;;;;0.90;0.80;;;25.70;53.10;;;;;;5064639;28;20397;-82
2022/06/10 03:41:22;;;;;;;0.93;0.73;;;25.80;53.20;;;;;;5066827;28;20958;-82
2022/06/10 03:43:51;;;;;;;1.20;0.90;;;25.80;53.20;;;;;;5063497;28;20463;-82
2022/06/10 03:46:19;;;;;;;1.20;0.90;;;25.80;53.20;;;;;;5063771;28;20420;-82
2022/06/10 03:48:47;;;;;;;1.93;0.80;;;25.80;53.20;;;;;;5066840;28;20426;-82
2022/06/10 03:51:15;;;;;;;0.90;0.70;;;25.80;53.20;;;;;;5065176;28;20395;-82
2022/06/10 03:53:41;;;;;;;1.00;0.80;;;25.80;53.20;;;;;;5062207;28;20432;-82
2022/06/10 03:56:06;;;;;;;1.00;0.80;;;25.80;53.20;;;;;;5062475;28;20402;-82
2022/06/10 03:58:32;;;;;;;1.10;0.70;;;25.80;53.20;;;;;;5063561;28;20178;-81
2022/06/10 04:00:59;;;;;;;1.10;0.87;;;25.80;53.20;;;;;;5063182;28;20167;-81
2022/06/10 04:03:26;;;;;;;0.90;0.80;;;25.80;53.20;;;;;;5062329;28;20277;-81
2022/06/10 04:05:51;;;;;;;1.00;0.90;;;25.80;53.20;;;;;;5062120;28;20418;-82
2022/06/10 04:08:17;;;;;;;1.20;1.00;;;25.80;53.70;;;;;;5063422;28;20518;-82
2022/06/10 04:10:43;;;;;;;1.00;0.80;;;25.80;53.20;;;;;;5063342;28;20167;-82
2022/06/10 04:13:10;;;;;;;1.00;0.80;;;25.80;53.20;;;;;;5061755;28;20198;-82
2022/06/10 04:15:36;;;;;;;1.20;0.80;;;25.90;53.20;;;;;;5063598;28;20414;-82
2022/06/10 04:18:04;;;;;;;1.00;0.83;;;25.80;53.20;;;;;;5063487;28;20548;-82
2022/06/10 04:20:35;;;;;;;1.17;1.00;;;25.90;53.20;;;;;;5062937;28;20477;-82
2022/06/10 04:23:02;;;;;;;1.87;1.00;;;25.90;53.20;;;;;;5062807;28;20440;-82
2022/06/10 04:25:28;;;;;;;0.90;0.70;;;25.90;53.20;;;;;;5063355;28;20441;-82
2022/06/10 04:27:55;;;;;;;0.90;0.70;;;25.90;53.20;;;;;;5061884;28;20447;-82
2022/06/10 04:30:56;;;;;;;0.93;0.73;;;25.90;53.10;;;;;;5062533;28;20441;-82
2022/06/10 04:33:22;;;;;;;1.00;0.80;;;25.90;53.10;;;;;;5043869;28;20414;-82
2022/06/10 04:35:50;;;;;;;1.10;0.90;;;25.90;53.10;;;;;;5063417;28;20412;-82
2022/06/10 04:38:19;;;;;;;1.13;0.90;;;25.90;53.20;;;;;;5063255;28;20406;-82
2022/06/10 04:40:46;;;;;;;1.10;0.77;;;25.90;53.20;;;;;;5065941;28;20426;-82
2022/06/10 04:43:12;;;;;;;1.30;1.00;;;25.90;53.20;;;;;;5064892;28;20536;-82
2022/06/10 04:45:44;;;;;;;1.20;1.00;;;25.90;53.20;;;;;;5064217;28;20405;-82
2022/06/10 04:48:14;;;;;;;1.20;1.00;;;25.90;53.20;;;;;;5064737;28;20406;-82
2022/06/10 04:50:41;;;;;;;1.10;1.00;;;25.90;53.10;;;;;;5062843;28;20409;-82
2022/06/10 04:53:07;;;;;;;1.10;0.90;;;25.90;53.20;;;;;;5061222;28;20418;-82
2022/06/10 04:55:32;;;;;;;1.10;0.90;;;26.00;53.20;;;;;;5062217;28;20437;-81
2022/06/10 04:57:58;;;;;;;1.30;0.90;;;26.00;53.20;;;;;;5061373;28;20463;-82
2022/06/10 05:00:30;;;;;;;1.17;0.97;;;26.00;53.20;;;;;;5063040;28;20179;-81
2022/06/10 05:02:56;;;;;;;1.30;0.90;;;26.00;53.20;;;;;;5062416;28;20199;-81
2022/06/10 05:05:22;;;;;;;1.00;0.80;;;26.00;53.20;;;;;;5062404;28;20417;-82
2022/06/10 05:07:48;;;;;;;1.10;0.80;;;26.00;53.10;;;;;;5061197;28;20904;-81
2022/06/10 05:10:15;;;;;;;0.97;0.80;;;26.00;53.10;;;;;;5061915;28;20420;-81
2022/06/10 05:12:44;;;;;;;1.20;1.00;;;26.00;53.20;;;;;;5062208;28;20206;-82
2022/06/10 05:15:11;;;;;;;1.10;0.80;;;26.10;53.20;;;;;;5062543;28;20768;-81
2022/06/10 05:17:37;;;;;;;1.10;0.83;;;26.10;53.20;;;;;;5061532;28;20430;-81
2022/06/10 05:20:04;;;;;;;1.00;0.90;;;26.10;53.20;;;;;;5060521;28;20420;-81
2022/06/10 05:22:30;;;;;;;1.10;0.80;;;26.10;53.10;;;;;;5062532;28;20506;-81
2022/06/10 05:24:55;;;;;;;1.10;0.93;;;26.10;53.10;;;;;;5061474;28;20991;-81
2022/06/10 05:27:21;;;;;;;1.00;0.70;;;26.10;53.10;;;;;;5061886;28;20272;-81
2022/06/10 05:29:47;;;;;;;1.20;0.90;;;26.10;53.10;;;;;;5060496;28;20536;-81
2022/06/10 05:32:13;;;;;;;1.20;0.80;;;26.10;53.10;;;;;;5066469;28;20241;-81
2022/06/10 05:34:44;;;;;;;1.70;1.10;;;26.10;53.10;;;;;;5066003;28;20409;-81
2022/06/10 05:37:15;;;;;;;1.10;0.80;;;26.10;53.10;;;;;;5063872;28;20167;-81
2022/06/10 05:39:41;;;;;;;1.20;1.10;;;26.10;53.10;;;;;;5071831;28;20429;-81
2022/06/10 05:42:08;;;;;;;1.00;0.83;;;26.10;53.10;;;;;;5067627;28;20467;-81
2022/06/10 05:44:37;;;;;;;1.10;1.00;;;26.10;53.70;;;;;;5067593;28;20440;-81
2022/06/10 05:47:05;;;;;;;1.10;0.90;;;26.10;53.10;;;;;;5071491;28;20405;-81
2022/06/10 05:49:32;;;;;;;1.20;1.00;;;26.10;53.10;;;;;;5067196;28;20421;-82
2022/06/10 05:51:57;;;;;;;1.10;0.90;;;26.10;53.10;;;;;;5065983;28;20500;-81
2022/06/10 05:54:24;;;;;;;1.07;0.87;;;26.10;53.10;;;;;;5066322;28;20471;-81
2022/06/10 05:56:50;;;;;;;1.20;0.90;;;26.10;53.10;;;;;;5066079;28;20175;-81
2022/06/10 05:59:16;;;;;;;1.10;0.80;;;26.10;53.10;;;;;;5064809;28;20790;-81
2022/06/10 06:01:42;;;;;;;1.10;0.90;;;26.10;53.10;;;;;;5064473;28;20237;-81
2022/06/10 06:04:07;;;;;;;1.00;0.83;;;26.10;53.10;;;;;;5065991;28;20230;-81
2022/06/10 06:06:33;;;;;;;1.10;0.83;;;26.10;53.10;;;;;;5065714;28;20199;-81
2022/06/10 06:08:59;;;;;;;1.10;0.90;;;26.10;53.10;;;;;;5064401;28;20175;-81
2022/06/10 06:11:25;;;;;;;0.90;0.70;;;26.10;53.10;;;;;;5064397;28;20416;-81
2022/06/10 06:13:51;;;;;;;1.10;0.87;;;26.20;53.20;;;;;;5063404;28;20532;-81
2022/06/10 06:16:19;;;;;;;1.83;0.90;;;26.10;53.10;;;;;;5064561;28;20421;-81
2022/06/10 06:18:45;;;;;;;1.00;0.83;;;26.10;53.10;;;;;;5065915;28;20197;-82
2022/06/10 06:21:11;;;;;;;1.10;0.90;;;26.20;53.20;;;;;;5065604;28;20413;-81
2022/06/10 06:23:37;;;;;;;1.00;0.73;;;26.20;53.20;;;;;;5064411;28;21002;-81
2022/06/10 06:26:03;;;;;;;1.20;1.00;;;26.20;53.20;;;;;;5064601;28;20508;-81
2022/06/10 06:28:31;;;;;;;1.00;0.80;;;26.20;53.20;;;;;;5065106;28;20483;-80
2022/06/10 06:30:56;;;;;;;1.13;0.97;;;26.20;53.20;;;;;;5067673;28;20442;-81
2022/06/10 06:33:23;;;;;;;1.27;0.97;;;26.10;53.10;;;;;;5069178;28;20440;-81
2022/06/10 06:35:53;;;;;;;0.97;0.80;;;26.10;53.10;;;;;;5067300;28;20233;-82
2022/06/10 06:38:21;;;;;;;1.00;0.80;;;26.20;53.20;;;;;;5052270;28;20502;-80
2022/06/10 06:40:49;;;;;;;0.90;0.80;;;26.20;53.20;;;;;;5067206;28;20848;-81
2022/06/10 06:43:15;;;;;;;1.00;0.80;;;26.20;53.20;;;;;;5063784;28;20449;-80
2022/06/10 06:45:43;;;;;;;0.90;0.77;;;26.20;53.20;;;;;;5067931;28;20947;-81
2022/06/10 06:48:10;;;;;;;1.80;0.90;;;26.20;53.20;;;;;;5065822;28;20172;-81
2022/06/10 06:50:45;;;;;;;1.00;0.80;;;26.20;53.10;;;;;;5072469;28;20419;-80
2022/06/10 06:53:11;;;;;;;1.10;1.00;;;26.20;53.20;;;;;;5073712;28;20417;-80
2022/06/10 06:55:38;;;;;;;1.30;1.10;;;26.20;53.10;;;;;;5063754;28;20429;-82
2022/06/10 06:58:08;;;;;;;1.53;0.80;;;26.20;53.10;;;;;;5060722;28;20190;-83
2022/06/10 07:00:34;;;;;;;1.10;0.90;;;26.20;53.10;;;;;;5071659;28;20426;-83
2022/06/10 07:03:00;;;;;;;1.30;0.90;;;26.20;53.10;;;;;;5069372;28;20521;-83
2022/06/10 07:05:26;;;;;;;1.10;1.00;;;26.20;53.10;;;;;;5036468;28;20428;-83
2022/06/10 07:07:52;;;;;;;1.03;0.90;;;26.20;53.10;;;;;;5072040;28;20418;-82
2022/06/10 07:10:21;;;;;;;1.13;1.00;;;26.20;53.10;;;;;;5071844;28;20196;-81
2022/06/10 07:12:47;;;;;;;1.67;0.80;;;26.20;53.10;;;;;;5062935;28;20406;-81
2022/06/10 07:15:13;;;;;;;1.00;0.80;;;26.20;53.10;;;;;;5064321;28;20432;-81
2022/06/10 07:17:40;;;;;;;1.27;1.00;;;26.20;53.10;;;;;;5065622;28;20468;-81
2022/06/10 07:20:08;;;;;;;1.13;0.80;;;26.20;53.10;;;;;;5064636;28;20496;-80
2022/06/10 07:22:34;;;;;;;1.00;0.80;;;26.20;53.10;;;;;;5059234;28;20449;-81
2022/06/10 07:25:00;;;;;;;1.30;1.00;;;26.20;53.10;;;;;;5064936;28;20449;-81
2022/06/10 07:27:25;;;;;;;1.20;0.80;;;26.20;53.10;;;;;;5062408;28;20205;-82
2022/06/10 07:29:51;;;;;;;1.73;1.03;;;26.20;53.10;;;;;;5065250;28;20171;-82
2022/06/10 07:32:17;;;;;;;1.10;0.90;;;26.20;53.10;;;;;;5055849;28;20183;-82
2022/06/10 07:34:43;;;;;;;1.00;0.90;;;26.20;53.20;;;;;;5064927;28;20195;-81
2022/06/10 07:37:09;;;;;;;1.30;1.20;;;26.20;53.20;;;;;;5064575;28;20417;-81
2022/06/10 07:39:35;;;;;;;1.30;1.13;;;26.20;53.20;;;;;;5063671;28;20265;-81
2022/06/10 07:42:02;;;;;;;1.10;0.80;;;26.20;53.20;;;;;;5064156;28;20450;-81
2022/06/10 07:44:37;;;;;;;1.23;0.93;;;26.20;53.20;;;;;;5064458;28;20934;-81
2022/06/10 07:47:07;;;;;;;1.20;0.90;;;26.20;53.20;;;;;;5062841;28;20432;-81
2022/06/10 07:49:34;;;;;;;2.37;1.40;;;26.20;53.20;;;;;;5064904;28;20412;-81
2022/06/10 07:52:00;;;;;;;1.20;1.00;;;26.20;53.20;;;;;;5063050;28;20426;-82
2022/06/10 07:54:26;;;;;;;1.40;1.00;;;26.20;53.20;;;;;;5062001;28;20455;-81
2022/06/10 07:56:53;;;;;;;1.50;1.00;;;26.20;53.20;;;;;;5062357;28;20418;-82
2022/06/10 07:59:19;;;;;;;1.30;0.80;;;26.20;53.20;;;;;;5053717;28;20437;-81
2022/06/10 08:01:45;;;;;;;1.53;1.07;;;26.20;53.20;;;;;;5055100;28;20458;-81
2022/06/10 08:04:11;;;;;;;1.10;1.00;;;26.20;53.20;;;;;;5069126;28;20402;-81
2022/06/10 08:06:43;;;;;;;1.10;0.90;;;26.20;53.20;;;;;;5067825;28;20516;-81
2022/06/10 08:09:10;;;;;;;1.63;1.00;;;26.20;53.20;;;;;;5067127;28;20181;-81
2022/06/10 08:11:37;;;;;;;1.10;0.97;;;26.20;53.20;;;;;;5064195;28;20437;-82
2022/06/10 08:14:04;;;;;;;1.10;1.00;;;26.20;53.20;;;;;;5062660;28;20425;-82
2022/06/10 08:16:37;;;;;;;1.00;0.80;;;26.20;53.20;;;;;;5059581;28;20406;-82
2022/06/10 08:19:04;;;;;;;1.10;0.80;;;26.20;53.20;;;;;;5065557;28;20425;-82
2022/06/10 08:22:32;;;;;;;1.00;0.90;;;26.20;53.20;;;;;;5065562;28;20405;-81
2022/06/10 08:24:17;;;;;;;1.60;0.97;;;26.20;53.30;;;;;;5068132;28;20438;-81
2022/06/10 08:26:42;;;;;;;1.10;0.90;;;26.20;53.30;;;;;;5051336;28;20418;-81
2022/06/10 08:29:08;;;;;;;1.40;0.93;;;26.20;53.30;;;;;;5062571;28;20423;-80
2022/06/10 08:31:37;;;;;;;1.40;0.93;;;26.20;53.30;;;;;;5068313;28;20258;-81
2022/06/10 08:34:04;;;;;;;1.97;0.97;;;26.20;53.30;;;;;;5067225;28;20430;-80
2022/06/10 08:36:41;;;;;;;1.87;1.30;;;26.20;53.60;;;;;;5069238;28;20471;-82
2022/06/10 08:39:14;;;;;;;1.40;1.07;;;26.20;53.30;;;;;;5067620;28;20409;-83
2022/06/10 08:42:13;;;;;;;2.23;1.07;;;26.20;53.30;;;;;;5067216;28;20481;-82
2022/06/10 08:44:44;;;;;;;1.40;1.03;;;26.20;53.30;;;;;;5062179;28;20431;-81
2022/06/10 08:47:31;;;;;;;1.40;0.90;;;26.20;53.30;;;;;;5066097;28;20489;-82
2022/06/10 08:50:25;;;;;;;1.17;1.07;;;26.20;53.30;;;;;;5067049;28;20417;-82
2022/06/10 08:53:04;;;;;;;1.30;1.10;;;26.20;53.30;;;;;;5062875;28;20420;-81
2022/06/10 08:55:42;;;;;;;1.30;1.20;;;26.20;53.30;;;;;;5065660;28;20445;-82
2022/06/10 08:58:26;;;;;;;1.50;1.10;;;26.20;53.30;;;;;;5067249;28;20410;-82
2022/06/10 09:01:04;;;;;;;2.20;1.50;;;26.20;53.30;;;;;;5061236;28;20412;-82
2022/06/10 09:03:41;;;;;;;1.23;1.07;;;26.20;53.30;;;;;;5067359;28;20549;-82
2022/06/10 09:06:40;;;;;;;1.20;1.10;;;26.20;53.30;;;;;;5067597;28;20428;-80
2022/06/10 09:09:12;;;;;;;1.30;1.10;;;26.20;53.30;;;;;;5059266;28;20437;-81
2022/06/10 09:11:41;;;;;;;1.70;1.23;;;26.20;53.30;;;;;;5063911;28;20435;-80
2022/06/10 09:14:18;;;;;;;1.23;1.10;;;26.20;53.30;;;;;;5072569;28;20437;-80
2022/06/10 09:17:06;;;;;;;2.20;1.13;;;26.20;53.30;;;;;;5067297;28;20410;-80
2022/06/10 09:19:58;;;;;;;1.30;1.20;;;26.20;53.30;;;;;;5070286;28;20428;-80
2022/06/10 09:22:44;;;;;;;1.37;1.10;;;26.20;53.30;;;;;;5071032;28;20441;-80
2022/06/10 09:25:24;;;;;;;1.20;1.10;;;26.20;53.30;;;;;;5071123;28;20421;-80
2022/06/10 09:27:58;;;;;;;3.17;1.40;;;26.20;53.30;;;;;;5065352;28;20779;-81
2022/06/10 09:30:36;;;;;;;1.20;1.10;;;26.20;53.20;;;;;;5067630;28;20409;-82
2022/06/10 09:33:05;;;;;;;2.50;1.23;;;26.20;53.20;;;;;;5044446;28;20422;-80
2022/06/10 09:36:01;;;;;;;1.57;1.00;;;26.20;53.20;;;;;;5068149;28;20572;-81
2022/06/10 09:38:35;;;;;;;2.57;1.73;;;26.20;53.20;;;;;;5068753;28;20409;-81
2022/06/10 09:41:27;;;;;;;2.40;1.40;;;26.20;53.20;;;;;;5070636;28;20417;-81
2022/06/10 09:43:59;;;;;;;2.93;1.37;;;26.20;53.20;;;;;;5066993;28;21211;-81
2022/06/10 09:46:34;;;;;;;1.73;1.20;;;26.20;53.20;;;;;;5067024;28;20472;-81
2022/06/10 09:49:12;;;;;;;1.87;1.23;;;26.20;53.20;;;;;;5062013;28;20417;-81
2022/06/10 09:52:11;;;;;;;1.23;1.13;;;26.20;53.20;;;;;;5067160;28;20409;-81
2022/06/10 09:54:40;;;;;;;1.47;1.27;;;26.20;53.10;;;;;;5064085;28;20459;-81
2022/06/10 09:57:14;;;;;;;1.20;1.10;;;26.20;53.10;;;;;;5071625;28;20409;-81
2022/06/10 09:59:49;;;;;;;1.80;1.27;;;26.20;53.10;;;;;;5071378;28;20416;-81
2022/06/10 10:02:46;;;;;;;1.57;1.30;;;26.20;53.10;;;;;;5070183;28;20873;-81
2022/06/10 10:05:20;;;;;;;1.33;1.23;;;26.20;53.10;;;;;;5065398;28;20449;-81
2022/06/10 10:08:07;;;;;;;2.40;1.60;;;26.20;53.10;;;;;;5070228;28;20776;-81
2022/06/10 10:10:45;;;;;;;1.30;1.10;;;26.20;53.10;;;;;;5070318;28;20757;-81
2022/06/10 10:13:43;;;;;;;2.40;1.47;;;26.20;53.10;;;;;;5071749;28;20463;-81
2022/06/10 10:16:24;;;;;;;1.20;1.10;;;26.20;53.70;;;;;;5065489;28;20421;-81
2022/06/10 10:19:12;;;;;;;1.30;1.17;;;26.20;53.10;;;;;;5067443;28;20430;-81
2022/06/10 10:22:19;;;;;;;1.80;1.13;;;26.20;53.10;;;;;;5051267;28;20502;-81
2022/06/10 10:24:45;;;;;;;1.53;1.40;;;26.20;53.20;;;;;;5049901;28;20983;-80
2022/06/10 10:27:26;;;;;;;1.33;1.23;;;26.20;53.10;;;;;;5050353;28;20415;-80
2022/06/10 10:30:14;;;;;;;1.37;1.27;;;26.20;53.10;;;;;;5050995;28;20414;-80
2022/06/10 10:32:42;;;;;;;1.80;1.40;;;26.20;53.10;;;;;;5052309;28;20414;-80
2022/06/10 10:35:22;;;;;;;1.23;1.10;;;26.20;53.10;;;;;;5049844;28;20437;-80
2022/06/10 10:38:03;;;;;;;1.30;1.17;;;26.30;53.20;;;;;;5051589;28;20406;-80
2022/06/10 10:40:46;;;;;;;1.30;1.20;;;26.30;53.20;;;;;;5051934;28;20405;-81
2022/06/10 10:43:12;;;;;;;1.43;1.27;;;26.20;53.10;;;;;;5051287;28;20442;-81
2022/06/10 10:45:50;;;;;;;1.30;1.20;;;26.20;53.10;;;;;;5050376;28;20417;-81
2022/06/10 10:48:25;;;;;;;1.60;1.30;;;26.30;53.10;;;;;;5050105;28;20174;-81
2022/06/10 10:51:09;;;;;;;1.20;1.10;;;26.30;53.10;;;;;;5050286;28;20414;-81
2022/06/10 10:53:54;;;;;;;1.40;1.30;;;26.30;53.10;;;;;;5050319;28;20437;-81
2022/06/10 10:56:30;;;;;;;2.37;1.53;;;26.30;53.10;;;;;;5049456;28;20793;-81
2022/06/10 10:58:57;;;;;;;1.40;1.30;;;26.30;53.10;;;;;;5051092;28;20414;-81
2022/06/10 11:01:54;;;;;;;1.23;1.13;;;26.30;53.10;;;;;;5034172;28;20490;-82
2022/06/10 11:04:41;;;;;;;1.43;1.33;;;26.30;53.10;;;;;;5050627;28;20926;-82
2022/06/10 11:07:22;;;;;;;1.47;1.37;;;26.30;53.10;;;;;;5049660;28;20394;-82
2022/06/10 11:10:05;;;;;;;2.70;1.20;;;26.30;53.10;;;;;;5046798;28;20395;-83
2022/06/10 11:12:32;;;;;;;3.43;1.33;;;26.30;53.10;;;;;;5042979;28;20411;-82
2022/06/10 11:15:06;;;;;;;2.00;1.67;;;26.30;53.00;;;;;;5043370;28;20449;-83
2022/06/10 11:17:35;;;;;;;1.67;1.30;;;26.30;53.00;;;;;;5043294;28;20407;-82
2022/06/10 11:20:28;;;;;;;2.13;1.37;;;26.30;53.00;;;;;;5045656;28;20496;-82
2022/06/10 11:23:20;;;;;;;2.50;1.50;;;26.30;52.90;;;;;;5043241;28;20533;-82
2022/06/10 11:26:10;;;;;;;2.00;1.50;;;26.30;52.90;;;;;;5043579;28;20449;-82
2022/06/10 11:28:39;;;;;;;1.30;1.20;;;26.30;52.90;;;;;;5045456;28;20407;-82
2022/06/10 11:31:17;;;;;;;1.63;1.53;;;26.30;52.90;;;;;;5044278;28;20403;-82
2022/06/10 11:33:46;;;;;;;1.50;1.40;;;26.30;52.90;;;;;;5043193;28;20415;-83
2022/06/10 11:36:21;;;;;;;1.93;1.20;;;26.30;52.90;;;;;;5026837;28;20446;-81
2022/06/10 11:39:31;;;;;;;2.53;1.40;;;26.30;52.90;;;;;;5044475;28;20402;-82
2022/06/10 11:41:59;;;;;;;1.20;1.10;;;26.40;52.90;;;;;;5044551;28;20446;-81
2022/06/10 11:44:30;;;;;;;2.07;1.87;;;26.30;52.90;;;;;;5044398;28;20414;-82
2022/06/10 11:47:16;;;;;;;1.33;1.23;;;26.30;53.40;;;;;;5043239;28;20414;-81
2022/06/10 11:49:58;;;;;;;2.53;1.30;;;26.30;52.90;;;;;;4967848;28;20417;-83
2022/06/10 11:52:32;;;;;;;1.30;1.20;;;26.30;52.90;;;;;;4984145;28;20424;-82
2022/06/10 11:55:22;;;;;;;2.73;1.00;;;26.30;52.80;;;;;;4967047;28;20495;-82
2022/06/10 12:01:20;;;;;;;1.57;1.47;;;26.30;52.80;;;;;;4984474;28;20891;-82
2022/06/10 12:03:52;;;;;;;1.40;1.30;;;26.30;52.80;;;;;;4982845;28;20490;-82
2022/06/10 12:06:36;;;;;;;1.60;1.50;;;26.30;52.80;;;;;;4983276;28;20453;-82
2022/06/10 12:09:15;;;;;;;2.03;1.30;;;26.30;52.80;;;;;;4967439;28;20418;-82
2022/06/10 12:11:40;;;;;;;1.60;1.40;;;26.30;52.80;;;;;;4966538;28;20524;-82
2022/06/10 12:14:25;;;;;;;1.87;1.67;;;26.30;52.80;;;;;;4981948;28;20484;-82
2022/06/10 12:17:31;;;;;;;2.10;1.90;;;26.30;52.80;;;;;;4982701;28;20174;-82
2022/06/10 12:20:21;;;;;;;1.80;1.27;;;26.30;52.70;;;;;;4981943;28;20476;-82
2022/06/10 12:22:47;;;;;;;1.30;1.20;;;26.30;52.80;;;;;;4966384;28;20564;-82
2022/06/10 12:25:22;;;;;;;1.50;1.40;;;26.30;52.80;;;;;;4981916;28;20413;-82
2022/06/10 12:28:17;;;;;;;1.43;1.30;;;26.30;52.80;;;;;;5035674;28;20417;-82
2022/06/10 12:30:50;;;;;;;1.60;1.40;;;26.30;52.70;;;;;;5047760;28;20919;-82
2022/06/10 12:33:30;;;;;;;1.57;1.23;;;26.30;52.70;;;;;;5061656;28;20429;-82
2022/06/10 12:35:58;;;;;;;1.43;1.33;;;26.30;52.80;;;;;;5061737;28;20421;-82
2022/06/10 12:38:30;;;;;;;1.50;1.17;;;26.30;52.70;;;;;;5061498;28;20911;-82
2022/06/10 12:41:04;;;;;;;1.30;1.20;;;26.30;52.70;;;;;;5062599;28;20409;-82
2022/06/10 12:43:33;;;;;;;1.77;1.50;;;26.30;52.70;;;;;;5062338;28;20484;-82
2022/06/10 12:46:37;;;;;;;2.40;1.43;;;26.30;52.70;;;;;;5061383;28;20485;-82
2022/06/10 12:49:33;;;;;;;1.73;1.33;;;26.30;52.70;;;;;;5060828;28;20854;-82
2022/06/10 12:52:19;;;;;;;2.07;1.87;;;26.30;52.70;;;;;;5061759;28;20433;-82
2022/06/10 12:54:48;;;;;;;2.80;1.20;;;26.30;52.70;;;;;;5062011;28;20436;-82
2022/06/10 12:57:35;;;;;;;3.10;1.53;;;26.30;52.70;;;;;;5063236;28;20425;-82
2022/06/10 13:00:22;;;;;;;1.47;1.30;;;26.30;52.70;;;;;;5064739;28;20477;-82
2022/06/10 13:02:49;;;;;;;1.50;1.33;;;26.30;52.70;;;;;;5064399;28;21024;-82
2022/06/10 13:05:32;;;;;;;1.40;1.30;;;26.20;52.60;;;;;;5067343;28;20433;-80
2022/06/10 13:08:01;;;;;;;1.67;1.57;;;26.20;52.60;;;;;;5066542;28;20413;-81
2022/06/10 13:10:35;;;;;;;1.90;1.50;;;26.30;52.70;;;;;;5063284;28;20442;-81
2022/06/10 13:13:15;;;;;;;1.70;1.40;;;26.30;52.70;;;;;;5066266;28;20412;-81
2022/06/10 13:15:42;;;;;;;1.50;1.40;;;26.30;52.70;;;;;;5065526;28;20417;-82
2022/06/10 13:18:17;;;;;;;1.23;1.13;;;26.30;52.70;;;;;;5062594;28;20417;-82
2022/06/10 13:20:46;;;;;;;1.50;1.20;;;26.30;52.70;;;;;;5068420;28;20427;-81
2022/06/10 13:23:21;;;;;;;1.83;1.50;;;26.30;52.60;;;;;;5066664;28;20456;-81
2022/06/10 13:25:50;;;;;;;1.37;1.27;;;26.30;52.60;;;;;;5066960;28;20439;-82
2022/06/10 13:28:27;;;;;;;1.43;1.33;;;26.30;52.60;;;;;;5063803;28;20413;-81
2022/06/10 13:31:26;;;;;;;1.57;1.47;;;26.30;52.60;;;;;;5063611;28;20421;-81